sensor_id;sensor_type;location;lat;lon;timestamp;P1;durP1;ratioP1;P2;durP2;ratioP2
25327;SDS011;13279;51.300;12.394;2022-10-23T00:00:38;14.37;;;6.03;;
25327;SDS011;13279;51.300;12.394;2022-10-23T00:03:06;13.50;;;5.23;;
25327;SDS011;13279;51.300;12.394;2022-10-23T00:05:33;10.93;;;5.53;;
25327;SDS011;13279;51.300;12.394;2022-10-23T00:08:06;10.83;;;5.30;;
25327;SDS011;13279;51.300;12.394;2022-10-23T00:10:33;9.13;;;5.90;;
25327;SDS011;13279;51.300;12.394;2022-10-23T00:13:03;13.43;;;5.60;;
25327;SDS011;13279;51.300;12.394;2022-10-23T00:15:31;11.07;;;5.70;;
25327;SDS011;13279;51.300;12.394;2022-10-23T00:18:01;7.53;;;4.87;;
25327;SDS011;13279;51.300;12.394;2022-10-23T00:20:29;10.70;;;5.30;;
25327;SDS011;13279;51.300;12.394;2022-10-23T00:22:56;10.23;;;5.67;;
25327;SDS011;13279;51.300;12.394;2022-10-23T00:25:23;8.30;;;4.70;;
25327;SDS011;13279;51.300;12.394;2022-10-23T00:27:51;11.50;;;5.27;;
25327;SDS011;13279;51.300;12.394;2022-10-23T00:30:20;8.63;;;4.90;;
25327;SDS011;13279;51.300;12.394;2022-10-23T00:32:48;9.27;;;4.37;;
25327;SDS011;13279;51.300;12.394;2022-10-23T00:35:16;7.93;;;4.80;;
25327;SDS011;13279;51.300;12.394;2022-10-23T00:37:43;12.83;;;5.07;;
25327;SDS011;13279;51.300;12.394;2022-10-23T00:40:11;7.80;;;4.83;;
25327;SDS011;13279;51.300;12.394;2022-10-23T00:42:38;9.23;;;4.47;;
25327;SDS011;13279;51.300;12.394;2022-10-23T00:45:14;8.33;;;4.43;;
25327;SDS011;13279;51.300;12.394;2022-10-23T00:47:47;16.17;;;5.13;;
25327;SDS011;13279;51.300;12.394;2022-10-23T00:50:16;6.17;;;4.03;;
25327;SDS011;13279;51.300;12.394;2022-10-23T00:52:45;9.70;;;3.90;;
25327;SDS011;13279;51.300;12.394;2022-10-23T00:55:15;6.57;;;3.90;;
25327;SDS011;13279;51.300;12.394;2022-10-23T00:57:44;7.60;;;4.10;;
25327;SDS011;13279;51.300;12.394;2022-10-23T01:00:15;6.77;;;4.20;;
25327;SDS011;13279;51.300;12.394;2022-10-23T01:02:46;14.63;;;3.77;;
25327;SDS011;13279;51.300;12.394;2022-10-23T01:05:14;10.20;;;4.07;;
25327;SDS011;13279;51.300;12.394;2022-10-23T01:07:45;14.37;;;4.30;;
25327;SDS011;13279;51.300;12.394;2022-10-23T01:10:20;7.60;;;4.70;;
25327;SDS011;13279;51.300;12.394;2022-10-23T01:12:57;7.53;;;5.00;;
25327;SDS011;13279;51.300;12.394;2022-10-23T01:15:33;7.03;;;4.07;;
25327;SDS011;13279;51.300;12.394;2022-10-23T01:18:10;6.20;;;3.70;;
25327;SDS011;13279;51.300;12.394;2022-10-23T01:20:47;7.07;;;4.33;;
25327;SDS011;13279;51.300;12.394;2022-10-23T01:23:28;10.53;;;4.27;;
25327;SDS011;13279;51.300;12.394;2022-10-23T01:26:08;8.67;;;4.47;;
25327;SDS011;13279;51.300;12.394;2022-10-23T01:28:46;11.23;;;4.40;;
25327;SDS011;13279;51.300;12.394;2022-10-23T01:31:20;10.30;;;4.43;;
25327;SDS011;13279;51.300;12.394;2022-10-23T01:33:53;11.80;;;4.33;;
25327;SDS011;13279;51.300;12.394;2022-10-23T01:36:26;5.60;;;4.10;;
25327;SDS011;13279;51.300;12.394;2022-10-23T01:38:59;10.27;;;4.40;;
25327;SDS011;13279;51.300;12.394;2022-10-23T01:41:29;10.10;;;4.03;;
25327;SDS011;13279;51.300;12.394;2022-10-23T01:44:05;9.80;;;4.43;;
25327;SDS011;13279;51.300;12.394;2022-10-23T01:46:37;9.43;;;4.30;;
25327;SDS011;13279;51.300;12.394;2022-10-23T01:49:07;8.20;;;4.30;;
25327;SDS011;13279;51.300;12.394;2022-10-23T01:51:38;6.87;;;4.23;;
25327;SDS011;13279;51.300;12.394;2022-10-23T01:54:09;6.10;;;3.80;;
25327;SDS011;13279;51.300;12.394;2022-10-23T01:56:43;5.03;;;4.00;;
25327;SDS011;13279;51.300;12.394;2022-10-23T01:59:16;6.03;;;3.30;;
25327;SDS011;13279;51.300;12.394;2022-10-23T02:01:50;6.73;;;4.07;;
25327;SDS011;13279;51.300;12.394;2022-10-23T02:04:23;9.23;;;3.97;;
25327;SDS011;13279;51.300;12.394;2022-10-23T02:06:55;5.17;;;3.97;;
25327;SDS011;13279;51.300;12.394;2022-10-23T02:09:22;4.73;;;3.97;;
25327;SDS011;13279;51.300;12.394;2022-10-23T02:11:51;6.47;;;3.63;;
25327;SDS011;13279;51.300;12.394;2022-10-23T02:17:13;14.47;;;4.67;;
25327;SDS011;13279;51.300;12.394;2022-10-23T02:19:45;12.23;;;4.40;;
25327;SDS011;13279;51.300;12.394;2022-10-23T02:22:18;7.83;;;4.50;;
25327;SDS011;13279;51.300;12.394;2022-10-23T02:24:52;7.03;;;3.70;;
25327;SDS011;13279;51.300;12.394;2022-10-23T02:27:25;8.13;;;4.27;;
25327;SDS011;13279;51.300;12.394;2022-10-23T02:29:58;7.17;;;3.70;;
25327;SDS011;13279;51.300;12.394;2022-10-23T02:32:30;8.43;;;4.03;;
25327;SDS011;13279;51.300;12.394;2022-10-23T02:34:59;7.20;;;4.23;;
25327;SDS011;13279;51.300;12.394;2022-10-23T02:37:27;4.80;;;3.87;;
25327;SDS011;13279;51.300;12.394;2022-10-23T02:39:54;8.27;;;3.20;;
25327;SDS011;13279;51.300;12.394;2022-10-23T02:42:25;7.20;;;4.07;;
25327;SDS011;13279;51.300;12.394;2022-10-23T02:45:01;5.10;;;3.50;;
25327;SDS011;13279;51.300;12.394;2022-10-23T02:47:39;6.03;;;4.10;;
25327;SDS011;13279;51.300;12.394;2022-10-23T02:50:19;12.03;;;4.07;;
25327;SDS011;13279;51.300;12.394;2022-10-23T02:52:53;6.60;;;4.03;;
25327;SDS011;13279;51.300;12.394;2022-10-23T02:55:32;5.30;;;3.87;;
25327;SDS011;13279;51.300;12.394;2022-10-23T02:58:08;8.07;;;3.83;;
25327;SDS011;13279;51.300;12.394;2022-10-23T03:00:44;4.70;;;3.37;;
25327;SDS011;13279;51.300;12.394;2022-10-23T03:03:18;13.40;;;6.07;;
25327;SDS011;13279;51.300;12.394;2022-10-23T03:05:48;9.20;;;3.80;;
25327;SDS011;13279;51.300;12.394;2022-10-23T03:08:15;5.93;;;3.77;;
25327;SDS011;13279;51.300;12.394;2022-10-23T03:10:43;8.07;;;4.23;;
25327;SDS011;13279;51.300;12.394;2022-10-23T03:13:11;8.33;;;4.47;;
25327;SDS011;13279;51.300;12.394;2022-10-23T03:15:40;9.50;;;5.07;;
25327;SDS011;13279;51.300;12.394;2022-10-23T03:18:12;9.20;;;4.33;;
25327;SDS011;13279;51.300;12.394;2022-10-23T03:20:44;8.43;;;4.20;;
25327;SDS011;13279;51.300;12.394;2022-10-23T03:23:13;6.97;;;4.13;;
25327;SDS011;13279;51.300;12.394;2022-10-23T03:25:41;9.97;;;3.93;;
25327;SDS011;13279;51.300;12.394;2022-10-23T03:28:21;9.53;;;4.17;;
25327;SDS011;13279;51.300;12.394;2022-10-23T03:30:49;4.47;;;3.60;;
25327;SDS011;13279;51.300;12.394;2022-10-23T03:33:17;6.70;;;3.90;;
25327;SDS011;13279;51.300;12.394;2022-10-23T03:35:46;7.53;;;3.93;;
25327;SDS011;13279;51.300;12.394;2022-10-23T03:38:15;4.83;;;3.57;;
25327;SDS011;13279;51.300;12.394;2022-10-23T03:40:43;5.53;;;4.20;;
25327;SDS011;13279;51.300;12.394;2022-10-23T03:43:11;6.77;;;4.00;;
25327;SDS011;13279;51.300;12.394;2022-10-23T03:45:39;6.77;;;4.40;;
25327;SDS011;13279;51.300;12.394;2022-10-23T03:48:07;10.57;;;3.93;;
25327;SDS011;13279;51.300;12.394;2022-10-23T03:50:36;12.73;;;4.80;;
25327;SDS011;13279;51.300;12.394;2022-10-23T03:53:04;7.63;;;4.03;;
25327;SDS011;13279;51.300;12.394;2022-10-23T03:55:33;6.73;;;4.13;;
25327;SDS011;13279;51.300;12.394;2022-10-23T03:58:00;8.20;;;4.33;;
25327;SDS011;13279;51.300;12.394;2022-10-23T04:00:28;9.07;;;3.90;;
25327;SDS011;13279;51.300;12.394;2022-10-23T04:02:55;7.13;;;5.13;;
25327;SDS011;13279;51.300;12.394;2022-10-23T04:05:22;6.33;;;3.83;;
25327;SDS011;13279;51.300;12.394;2022-10-23T04:07:55;5.43;;;3.73;;
25327;SDS011;13279;51.300;12.394;2022-10-23T04:10:23;5.00;;;3.90;;
25327;SDS011;13279;51.300;12.394;2022-10-23T04:12:51;5.53;;;4.00;;
25327;SDS011;13279;51.300;12.394;2022-10-23T04:15:18;4.67;;;3.57;;
25327;SDS011;13279;51.300;12.394;2022-10-23T04:17:46;10.80;;;4.63;;
25327;SDS011;13279;51.300;12.394;2022-10-23T04:20:13;6.00;;;4.03;;
25327;SDS011;13279;51.300;12.394;2022-10-23T04:22:41;6.43;;;4.07;;
25327;SDS011;13279;51.300;12.394;2022-10-23T04:25:10;9.13;;;4.07;;
25327;SDS011;13279;51.300;12.394;2022-10-23T04:27:38;4.00;;;3.63;;
25327;SDS011;13279;51.300;12.394;2022-10-23T04:30:06;7.03;;;3.80;;
25327;SDS011;13279;51.300;12.394;2022-10-23T04:32:36;6.63;;;3.43;;
25327;SDS011;13279;51.300;12.394;2022-10-23T04:35:03;5.13;;;3.90;;
25327;SDS011;13279;51.300;12.394;2022-10-23T04:37:32;6.90;;;4.07;;
25327;SDS011;13279;51.300;12.394;2022-10-23T04:40:00;6.13;;;3.90;;
25327;SDS011;13279;51.300;12.394;2022-10-23T04:42:29;7.43;;;3.90;;
25327;SDS011;13279;51.300;12.394;2022-10-23T04:44:59;5.20;;;4.20;;
25327;SDS011;13279;51.300;12.394;2022-10-23T04:47:28;9.63;;;4.30;;
25327;SDS011;13279;51.300;12.394;2022-10-23T04:49:57;7.27;;;4.33;;
25327;SDS011;13279;51.300;12.394;2022-10-23T04:52:54;6.27;;;4.67;;
25327;SDS011;13279;51.300;12.394;2022-10-23T04:55:58;9.50;;;4.17;;
25327;SDS011;13279;51.300;12.394;2022-10-23T04:58:57;7.87;;;4.10;;
25327;SDS011;13279;51.300;12.394;2022-10-23T05:01:24;8.63;;;5.37;;
25327;SDS011;13279;51.300;12.394;2022-10-23T05:03:52;9.10;;;4.57;;
25327;SDS011;13279;51.300;12.394;2022-10-23T05:06:22;16.60;;;4.20;;
25327;SDS011;13279;51.300;12.394;2022-10-23T05:09:05;9.07;;;4.40;;
25327;SDS011;13279;51.300;12.394;2022-10-23T05:11:58;5.50;;;4.33;;
25327;SDS011;13279;51.300;12.394;2022-10-23T05:14:27;5.93;;;4.00;;
25327;SDS011;13279;51.300;12.394;2022-10-23T05:16:54;8.20;;;4.57;;
25327;SDS011;13279;51.300;12.394;2022-10-23T05:19:28;5.47;;;3.93;;
25327;SDS011;13279;51.300;12.394;2022-10-23T05:22:00;6.83;;;4.07;;
25327;SDS011;13279;51.300;12.394;2022-10-23T05:24:44;12.67;;;4.03;;
25327;SDS011;13279;51.300;12.394;2022-10-23T05:27:12;10.53;;;4.67;;
25327;SDS011;13279;51.300;12.394;2022-10-23T05:29:42;7.83;;;3.90;;
25327;SDS011;13279;51.300;12.394;2022-10-23T05:32:11;6.63;;;4.10;;
25327;SDS011;13279;51.300;12.394;2022-10-23T05:34:42;7.60;;;3.60;;
25327;SDS011;13279;51.300;12.394;2022-10-23T05:37:10;5.13;;;3.53;;
25327;SDS011;13279;51.300;12.394;2022-10-23T05:39:41;5.33;;;3.50;;
25327;SDS011;13279;51.300;12.394;2022-10-23T05:42:11;7.83;;;3.83;;
25327;SDS011;13279;51.300;12.394;2022-10-23T05:44:41;6.33;;;3.70;;
25327;SDS011;13279;51.300;12.394;2022-10-23T05:47:19;13.77;;;3.97;;
25327;SDS011;13279;51.300;12.394;2022-10-23T05:50:13;12.30;;;4.63;;
25327;SDS011;13279;51.300;12.394;2022-10-23T05:52:45;7.13;;;3.50;;
25327;SDS011;13279;51.300;12.394;2022-10-23T05:55:29;6.10;;;3.80;;
25327;SDS011;13279;51.300;12.394;2022-10-23T05:58:15;5.53;;;4.20;;
25327;SDS011;13279;51.300;12.394;2022-10-23T06:01:05;6.53;;;3.73;;
25327;SDS011;13279;51.300;12.394;2022-10-23T06:03:50;8.53;;;4.03;;
25327;SDS011;13279;51.300;12.394;2022-10-23T06:06:22;10.67;;;3.70;;
25327;SDS011;13279;51.300;12.394;2022-10-23T06:08:50;8.40;;;3.33;;
25327;SDS011;13279;51.300;12.394;2022-10-23T06:11:20;9.17;;;4.10;;
25327;SDS011;13279;51.300;12.394;2022-10-23T06:13:57;7.60;;;4.00;;
25327;SDS011;13279;51.300;12.394;2022-10-23T06:16:26;5.20;;;3.43;;
25327;SDS011;13279;51.300;12.394;2022-10-23T06:18:54;5.73;;;3.87;;
25327;SDS011;13279;51.300;12.394;2022-10-23T06:21:22;5.87;;;3.63;;
25327;SDS011;13279;51.300;12.394;2022-10-23T06:23:51;6.73;;;3.67;;
25327;SDS011;13279;51.300;12.394;2022-10-23T06:26:19;7.67;;;3.80;;
25327;SDS011;13279;51.300;12.394;2022-10-23T06:29:05;5.20;;;3.57;;
25327;SDS011;13279;51.300;12.394;2022-10-23T06:31:35;8.63;;;3.37;;
25327;SDS011;13279;51.300;12.394;2022-10-23T06:34:03;11.90;;;3.80;;
25327;SDS011;13279;51.300;12.394;2022-10-23T06:36:31;11.27;;;3.57;;
25327;SDS011;13279;51.300;12.394;2022-10-23T06:39:25;4.87;;;3.13;;
25327;SDS011;13279;51.300;12.394;2022-10-23T06:42:22;5.37;;;3.10;;
25327;SDS011;13279;51.300;12.394;2022-10-23T06:44:52;7.83;;;3.40;;
25327;SDS011;13279;51.300;12.394;2022-10-23T06:47:45;6.77;;;3.33;;
25327;SDS011;13279;51.300;12.394;2022-10-23T06:50:35;9.30;;;3.30;;
25327;SDS011;13279;51.300;12.394;2022-10-23T06:53:07;3.97;;;3.10;;
25327;SDS011;13279;51.300;12.394;2022-10-23T06:55:42;5.67;;;3.30;;
25327;SDS011;13279;51.300;12.394;2022-10-23T06:58:10;5.53;;;3.50;;
25327;SDS011;13279;51.300;12.394;2022-10-23T07:00:58;3.53;;;2.83;;
25327;SDS011;13279;51.300;12.394;2022-10-23T07:03:28;6.23;;;3.07;;
25327;SDS011;13279;51.300;12.394;2022-10-23T07:05:58;4.63;;;2.83;;
25327;SDS011;13279;51.300;12.394;2022-10-23T07:08:26;5.23;;;2.70;;
25327;SDS011;13279;51.300;12.394;2022-10-23T07:10:55;4.30;;;3.10;;
25327;SDS011;13279;51.300;12.394;2022-10-23T07:13:23;5.77;;;3.13;;
25327;SDS011;13279;51.300;12.394;2022-10-23T07:15:58;5.13;;;2.63;;
25327;SDS011;13279;51.300;12.394;2022-10-23T07:18:35;5.23;;;2.50;;
25327;SDS011;13279;51.300;12.394;2022-10-23T07:21:22;10.40;;;2.40;;
25327;SDS011;13279;51.300;12.394;2022-10-23T07:23:52;5.03;;;2.20;;
25327;SDS011;13279;51.300;12.394;2022-10-23T07:26:20;3.33;;;2.37;;
25327;SDS011;13279;51.300;12.394;2022-10-23T07:28:48;6.70;;;2.40;;
25327;SDS011;13279;51.300;12.394;2022-10-23T07:31:22;4.17;;;1.93;;
25327;SDS011;13279;51.300;12.394;2022-10-23T07:34:10;5.07;;;2.20;;
25327;SDS011;13279;51.300;12.394;2022-10-23T07:36:39;3.13;;;2.03;;
25327;SDS011;13279;51.300;12.394;2022-10-23T07:39:07;2.30;;;2.10;;
25327;SDS011;13279;51.300;12.394;2022-10-23T07:41:40;2.40;;;2.20;;
25327;SDS011;13279;51.300;12.394;2022-10-23T07:44:08;5.40;;;1.90;;
25327;SDS011;13279;51.300;12.394;2022-10-23T07:46:36;3.13;;;2.07;;
25327;SDS011;13279;51.300;12.394;2022-10-23T07:49:06;3.87;;;2.53;;
25327;SDS011;13279;51.300;12.394;2022-10-23T07:51:38;3.23;;;1.80;;
25327;SDS011;13279;51.300;12.394;2022-10-23T07:54:06;7.57;;;1.90;;
25327;SDS011;13279;51.300;12.394;2022-10-23T07:57:08;3.50;;;1.93;;
25327;SDS011;13279;51.300;12.394;2022-10-23T07:59:53;4.43;;;2.03;;
25327;SDS011;13279;51.300;12.394;2022-10-23T08:02:22;3.07;;;2.40;;
25327;SDS011;13279;51.300;12.394;2022-10-23T08:04:51;5.37;;;2.20;;
25327;SDS011;13279;51.300;12.394;2022-10-23T08:07:34;4.50;;;2.40;;
25327;SDS011;13279;51.300;12.394;2022-10-23T08:10:02;2.83;;;1.90;;
25327;SDS011;13279;51.300;12.394;2022-10-23T08:12:31;3.47;;;2.30;;
25327;SDS011;13279;51.300;12.394;2022-10-23T08:14:59;4.13;;;2.00;;
25327;SDS011;13279;51.300;12.394;2022-10-23T08:17:34;2.63;;;2.03;;
25327;SDS011;13279;51.300;12.394;2022-10-23T08:20:21;3.63;;;2.17;;
25327;SDS011;13279;51.300;12.394;2022-10-23T08:22:50;3.03;;;1.90;;
25327;SDS011;13279;51.300;12.394;2022-10-23T08:25:22;3.37;;;2.30;;
25327;SDS011;13279;51.300;12.394;2022-10-23T08:27:51;4.50;;;2.40;;
25327;SDS011;13279;51.300;12.394;2022-10-23T08:30:18;10.33;;;2.50;;
25327;SDS011;13279;51.300;12.394;2022-10-23T08:32:46;8.53;;;3.00;;
25327;SDS011;13279;51.300;12.394;2022-10-23T08:35:14;3.83;;;2.67;;
25327;SDS011;13279;51.300;12.394;2022-10-23T08:37:42;7.57;;;3.33;;
25327;SDS011;13279;51.300;12.394;2022-10-23T08:40:13;6.93;;;3.10;;
25327;SDS011;13279;51.300;12.394;2022-10-23T08:43:02;7.37;;;3.03;;
25327;SDS011;13279;51.300;12.394;2022-10-23T08:45:36;3.00;;;2.57;;
25327;SDS011;13279;51.300;12.394;2022-10-23T08:48:22;5.87;;;2.97;;
25327;SDS011;13279;51.300;12.394;2022-10-23T08:51:33;4.73;;;2.90;;
25327;SDS011;13279;51.300;12.394;2022-10-23T08:54:07;5.47;;;2.90;;
25327;SDS011;13279;51.300;12.394;2022-10-23T08:56:43;3.77;;;2.67;;
25327;SDS011;13279;51.300;12.394;2022-10-23T08:59:16;6.43;;;2.87;;
25327;SDS011;13279;51.300;12.394;2022-10-23T09:01:51;7.77;;;2.80;;
25327;SDS011;13279;51.300;12.394;2022-10-23T09:04:24;8.53;;;2.50;;
25327;SDS011;13279;51.300;12.394;2022-10-23T09:06:54;5.57;;;2.83;;
25327;SDS011;13279;51.300;12.394;2022-10-23T09:09:35;4.37;;;2.50;;
25327;SDS011;13279;51.300;12.394;2022-10-23T09:12:19;5.37;;;2.40;;
25327;SDS011;13279;51.300;12.394;2022-10-23T09:14:57;4.67;;;2.93;;
25327;SDS011;13279;51.300;12.394;2022-10-23T09:17:33;5.97;;;2.40;;
25327;SDS011;13279;51.300;12.394;2022-10-23T09:20:06;2.80;;;2.00;;
25327;SDS011;13279;51.300;12.394;2022-10-23T09:22:42;4.47;;;2.57;;
25327;SDS011;13279;51.300;12.394;2022-10-23T09:25:15;2.13;;;1.93;;
25327;SDS011;13279;51.300;12.394;2022-10-23T09:27:47;6.73;;;3.37;;
25327;SDS011;13279;51.300;12.394;2022-10-23T09:30:24;2.23;;;2.10;;
25327;SDS011;13279;51.300;12.394;2022-10-23T09:32:56;4.50;;;2.23;;
25327;SDS011;13279;51.300;12.394;2022-10-23T09:35:24;8.20;;;2.57;;
25327;SDS011;13279;51.300;12.394;2022-10-23T09:37:53;5.93;;;2.67;;
25327;SDS011;13279;51.300;12.394;2022-10-23T09:40:28;4.97;;;2.53;;
25327;SDS011;13279;51.300;12.394;2022-10-23T09:43:01;3.00;;;2.70;;
25327;SDS011;13279;51.300;12.394;2022-10-23T09:45:36;4.73;;;3.20;;
25327;SDS011;13279;51.300;12.394;2022-10-23T09:48:12;4.23;;;3.00;;
25327;SDS011;13279;51.300;12.394;2022-10-23T09:50:51;4.57;;;2.60;;
25327;SDS011;13279;51.300;12.394;2022-10-23T09:53:23;8.60;;;2.80;;
25327;SDS011;13279;51.300;12.394;2022-10-23T09:55:56;4.00;;;2.73;;
25327;SDS011;13279;51.300;12.394;2022-10-23T09:58:31;5.30;;;2.33;;
25327;SDS011;13279;51.300;12.394;2022-10-23T10:01:00;5.40;;;2.17;;
25327;SDS011;13279;51.300;12.394;2022-10-23T10:03:47;3.73;;;2.23;;
25327;SDS011;13279;51.300;12.394;2022-10-23T10:06:20;3.27;;;2.40;;
25327;SDS011;13279;51.300;12.394;2022-10-23T10:08:50;5.10;;;2.40;;
25327;SDS011;13279;51.300;12.394;2022-10-23T10:11:21;7.63;;;2.50;;
25327;SDS011;13279;51.300;12.394;2022-10-23T10:14:09;7.80;;;3.03;;
25327;SDS011;13279;51.300;12.394;2022-10-23T10:17:10;2.60;;;2.00;;
25327;SDS011;13279;51.300;12.394;2022-10-23T10:19:54;13.50;;;2.33;;
25327;SDS011;13279;51.300;12.394;2022-10-23T10:22:38;5.33;;;2.50;;
25327;SDS011;13279;51.300;12.394;2022-10-23T10:25:13;2.83;;;2.30;;
25327;SDS011;13279;51.300;12.394;2022-10-23T10:27:49;7.50;;;2.30;;
25327;SDS011;13279;51.300;12.394;2022-10-23T10:30:29;5.23;;;2.43;;
25327;SDS011;13279;51.300;12.394;2022-10-23T10:33:03;3.73;;;2.60;;
25327;SDS011;13279;51.300;12.394;2022-10-23T10:35:39;4.03;;;2.50;;
25327;SDS011;13279;51.300;12.394;2022-10-23T10:38:14;4.87;;;2.37;;
25327;SDS011;13279;51.300;12.394;2022-10-23T10:44:18;4.53;;;2.67;;
25327;SDS011;13279;51.300;12.394;2022-10-23T10:47:08;3.67;;;2.20;;
25327;SDS011;13279;51.300;12.394;2022-10-23T10:49:42;2.87;;;2.27;;
25327;SDS011;13279;51.300;12.394;2022-10-23T10:52:43;2.77;;;1.97;;
25327;SDS011;13279;51.300;12.394;2022-10-23T10:55:21;4.10;;;1.80;;
25327;SDS011;13279;51.300;12.394;2022-10-23T10:58:13;3.77;;;2.00;;
25327;SDS011;13279;51.300;12.394;2022-10-23T11:00:45;3.20;;;2.30;;
25327;SDS011;13279;51.300;12.394;2022-10-23T11:03:20;3.23;;;1.80;;
25327;SDS011;13279;51.300;12.394;2022-10-23T11:05:56;2.03;;;1.83;;
25327;SDS011;13279;51.300;12.394;2022-10-23T11:08:28;3.13;;;1.80;;
25327;SDS011;13279;51.300;12.394;2022-10-23T11:11:02;4.53;;;3.93;;
25327;SDS011;13279;51.300;12.394;2022-10-23T11:13:34;2.27;;;1.73;;
25327;SDS011;13279;51.300;12.394;2022-10-23T11:16:04;1.70;;;1.60;;
25327;SDS011;13279;51.300;12.394;2022-10-23T11:18:40;7.70;;;2.03;;
25327;SDS011;13279;51.300;12.394;2022-10-23T11:21:16;8.17;;;1.87;;
25327;SDS011;13279;51.300;12.394;2022-10-23T11:23:59;2.57;;;1.80;;
25327;SDS011;13279;51.300;12.394;2022-10-23T11:26:44;1.67;;;1.57;;
25327;SDS011;13279;51.300;12.394;2022-10-23T11:29:27;5.13;;;1.70;;
25327;SDS011;13279;51.300;12.394;2022-10-23T11:32:28;2.57;;;1.70;;
25327;SDS011;13279;51.300;12.394;2022-10-23T11:35:18;5.13;;;2.10;;
25327;SDS011;13279;51.300;12.394;2022-10-23T11:37:58;1.60;;;1.50;;
25327;SDS011;13279;51.300;12.394;2022-10-23T11:40:27;3.13;;;1.77;;
25327;SDS011;13279;51.300;12.394;2022-10-23T11:42:55;4.10;;;1.60;;
25327;SDS011;13279;51.300;12.394;2022-10-23T11:45:30;4.10;;;1.50;;
25327;SDS011;13279;51.300;12.394;2022-10-23T11:48:00;3.20;;;1.97;;
25327;SDS011;13279;51.300;12.394;2022-10-23T11:50:32;6.60;;;2.10;;
25327;SDS011;13279;51.300;12.394;2022-10-23T11:53:22;1.67;;;1.57;;
25327;SDS011;13279;51.300;12.394;2022-10-23T11:56:04;3.10;;;1.77;;
25327;SDS011;13279;51.300;12.394;2022-10-23T11:58:51;2.30;;;1.60;;
25327;SDS011;13279;51.300;12.394;2022-10-23T12:01:24;2.40;;;1.80;;
25327;SDS011;13279;51.300;12.394;2022-10-23T12:03:57;3.57;;;1.60;;
25327;SDS011;13279;51.300;12.394;2022-10-23T12:06:30;2.73;;;1.97;;
25327;SDS011;13279;51.300;12.394;2022-10-23T12:09:05;2.80;;;1.80;;
25327;SDS011;13279;51.300;12.394;2022-10-23T12:11:39;4.57;;;2.00;;
25327;SDS011;13279;51.300;12.394;2022-10-23T12:14:28;5.67;;;2.13;;
25327;SDS011;13279;51.300;12.394;2022-10-23T12:16:58;3.00;;;2.07;;
25327;SDS011;13279;51.300;12.394;2022-10-23T12:19:27;3.00;;;1.90;;
25327;SDS011;13279;51.300;12.394;2022-10-23T12:21:58;3.00;;;1.77;;
25327;SDS011;13279;51.300;12.394;2022-10-23T12:24:36;8.07;;;1.80;;
25327;SDS011;13279;51.300;12.394;2022-10-23T12:27:20;2.53;;;1.93;;
25327;SDS011;13279;51.300;12.394;2022-10-23T12:30:00;3.40;;;1.70;;
25327;SDS011;13279;51.300;12.394;2022-10-23T12:32:44;3.30;;;1.70;;
25327;SDS011;13279;51.300;12.394;2022-10-23T12:35:31;3.37;;;1.90;;
25327;SDS011;13279;51.300;12.394;2022-10-23T12:38:30;3.73;;;1.70;;
25327;SDS011;13279;51.300;12.394;2022-10-23T12:40:59;3.07;;;1.60;;
25327;SDS011;13279;51.300;12.394;2022-10-23T12:43:32;2.53;;;1.80;;
25327;SDS011;13279;51.300;12.394;2022-10-23T12:46:03;7.93;;;2.53;;
25327;SDS011;13279;51.300;12.394;2022-10-23T12:48:46;4.20;;;2.50;;
25327;SDS011;13279;51.300;12.394;2022-10-23T12:51:15;3.63;;;2.60;;
25327;SDS011;13279;51.300;12.394;2022-10-23T12:53:50;3.37;;;2.23;;
25327;SDS011;13279;51.300;12.394;2022-10-23T12:56:18;7.93;;;2.13;;
25327;SDS011;13279;51.300;12.394;2022-10-23T12:58:47;5.30;;;2.00;;
25327;SDS011;13279;51.300;12.394;2022-10-23T13:01:21;2.77;;;1.80;;
25327;SDS011;13279;51.300;12.394;2022-10-23T13:03:51;5.23;;;2.40;;
25327;SDS011;13279;51.300;12.394;2022-10-23T13:06:25;2.20;;;1.60;;
25327;SDS011;13279;51.300;12.394;2022-10-23T13:08:54;3.17;;;1.70;;
25327;SDS011;13279;51.300;12.394;2022-10-23T13:11:53;7.77;;;1.83;;
25327;SDS011;13279;51.300;12.394;2022-10-23T13:14:30;8.13;;;2.33;;
25327;SDS011;13279;51.300;12.394;2022-10-23T13:17:02;5.63;;;2.93;;
25327;SDS011;13279;51.300;12.394;2022-10-23T13:19:30;6.77;;;1.80;;
25327;SDS011;13279;51.300;12.394;2022-10-23T13:21:58;3.00;;;2.20;;
25327;SDS011;13279;51.300;12.394;2022-10-23T13:24:28;2.10;;;1.80;;
25327;SDS011;13279;51.300;12.394;2022-10-23T13:26:57;4.27;;;1.70;;
25327;SDS011;13279;51.300;12.394;2022-10-23T13:29:25;2.30;;;1.40;;
25327;SDS011;13279;51.300;12.394;2022-10-23T13:31:55;2.53;;;1.87;;
25327;SDS011;13279;51.300;12.394;2022-10-23T13:34:24;2.50;;;1.73;;
25327;SDS011;13279;51.300;12.394;2022-10-23T13:36:55;2.53;;;1.50;;
25327;SDS011;13279;51.300;12.394;2022-10-23T13:39:29;1.47;;;1.37;;
25327;SDS011;13279;51.300;12.394;2022-10-23T13:41:59;3.13;;;1.43;;
25327;SDS011;13279;51.300;12.394;2022-10-23T13:44:35;1.70;;;1.60;;
25327;SDS011;13279;51.300;12.394;2022-10-23T13:47:03;1.87;;;1.40;;
25327;SDS011;13279;51.300;12.394;2022-10-23T13:49:31;2.00;;;1.50;;
25327;SDS011;13279;51.300;12.394;2022-10-23T13:51:58;4.50;;;1.80;;
25327;SDS011;13279;51.300;12.394;2022-10-23T13:54:26;2.07;;;1.87;;
25327;SDS011;13279;51.300;12.394;2022-10-23T13:56:55;1.87;;;1.40;;
25327;SDS011;13279;51.300;12.394;2022-10-23T13:59:23;2.20;;;1.60;;
25327;SDS011;13279;51.300;12.394;2022-10-23T14:01:51;4.10;;;2.07;;
25327;SDS011;13279;51.300;12.394;2022-10-23T14:04:18;3.00;;;1.83;;
25327;SDS011;13279;51.300;12.394;2022-10-23T14:06:46;2.87;;;1.80;;
25327;SDS011;13279;51.300;12.394;2022-10-23T14:09:15;2.87;;;2.13;;
25327;SDS011;13279;51.300;12.394;2022-10-23T14:11:45;2.20;;;2.00;;
25327;SDS011;13279;51.300;12.394;2022-10-23T14:14:12;2.60;;;2.00;;
25327;SDS011;13279;51.300;12.394;2022-10-23T14:16:40;3.87;;;2.23;;
25327;SDS011;13279;51.300;12.394;2022-10-23T14:19:07;3.33;;;1.90;;
25327;SDS011;13279;51.300;12.394;2022-10-23T14:21:36;1.90;;;1.70;;
25327;SDS011;13279;51.300;12.394;2022-10-23T14:24:04;2.60;;;1.77;;
25327;SDS011;13279;51.300;12.394;2022-10-23T14:26:32;3.23;;;1.83;;
25327;SDS011;13279;51.300;12.394;2022-10-23T14:29:01;5.60;;;1.67;;
25327;SDS011;13279;51.300;12.394;2022-10-23T14:31:28;3.77;;;2.27;;
25327;SDS011;13279;51.300;12.394;2022-10-23T14:33:56;1.77;;;1.60;;
25327;SDS011;13279;51.300;12.394;2022-10-23T14:36:25;4.07;;;2.00;;
25327;SDS011;13279;51.300;12.394;2022-10-23T14:38:53;3.83;;;2.53;;
25327;SDS011;13279;51.300;12.394;2022-10-23T14:41:22;2.50;;;2.30;;
25327;SDS011;13279;51.300;12.394;2022-10-23T14:43:50;5.27;;;2.50;;
25327;SDS011;13279;51.300;12.394;2022-10-23T14:46:19;2.17;;;1.97;;
25327;SDS011;13279;51.300;12.394;2022-10-23T14:48:48;3.13;;;2.60;;
25327;SDS011;13279;51.300;12.394;2022-10-23T14:51:16;5.33;;;2.80;;
25327;SDS011;13279;51.300;12.394;2022-10-23T14:53:45;5.77;;;2.13;;
25327;SDS011;13279;51.300;12.394;2022-10-23T14:56:13;13.00;;;2.67;;
25327;SDS011;13279;51.300;12.394;2022-10-23T14:58:41;6.93;;;2.67;;
25327;SDS011;13279;51.300;12.394;2022-10-23T15:01:08;2.50;;;2.30;;
25327;SDS011;13279;51.300;12.394;2022-10-23T15:03:37;8.87;;;3.37;;
25327;SDS011;13279;51.300;12.394;2022-10-23T15:06:05;4.20;;;2.83;;
25327;SDS011;13279;51.300;12.394;2022-10-23T15:08:33;7.07;;;2.10;;
25327;SDS011;13279;51.300;12.394;2022-10-23T15:11:02;5.70;;;2.20;;
25327;SDS011;13279;51.300;12.394;2022-10-23T15:13:30;2.90;;;1.90;;
25327;SDS011;13279;51.300;12.394;2022-10-23T15:16:01;4.20;;;2.13;;